sensor_id;sensor_type;location;lat;lon;timestamp;P1;durP1;ratioP1;P2;durP2;ratioP2
17173;SDS011;8702;48.130;-1.696;2022-10-26T00:00:07;7.90;;;2.73;;
17173;SDS011;8702;48.130;-1.696;2022-10-26T00:02:34;6.40;;;2.67;;
17173;SDS011;8702;48.130;-1.696;2022-10-26T00:05:03;10.37;;;2.77;;
17173;SDS011;8702;48.130;-1.696;2022-10-26T00:07:30;6.00;;;2.50;;
17173;SDS011;8702;48.130;-1.696;2022-10-26T00:09:57;7.83;;;2.83;;
17173;SDS011;8702;48.130;-1.696;2022-10-26T00:12:24;7.23;;;2.70;;
17173;SDS011;8702;48.130;-1.696;2022-10-26T00:14:51;10.70;;;2.90;;
17173;SDS011;8702;48.130;-1.696;2022-10-26T00:17:18;6.00;;;2.00;;
17173;SDS011;8702;48.130;-1.696;2022-10-26T00:19:45;6.80;;;2.83;;
17173;SDS011;8702;48.130;-1.696;2022-10-26T00:22:13;8.53;;;2.20;;
17173;SDS011;8702;48.130;-1.696;2022-10-26T00:24:40;8.47;;;2.40;;
17173;SDS011;8702;48.130;-1.696;2022-10-26T00:27:07;6.77;;;2.37;;
17173;SDS011;8702;48.130;-1.696;2022-10-26T00:29:34;9.00;;;2.80;;
17173;SDS011;8702;48.130;-1.696;2022-10-26T00:32:01;8.67;;;2.30;;
17173;SDS011;8702;48.130;-1.696;2022-10-26T00:34:28;7.67;;;2.47;;
17173;SDS011;8702;48.130;-1.696;2022-10-26T00:36:55;10.47;;;2.50;;
17173;SDS011;8702;48.130;-1.696;2022-10-26T00:39:23;6.70;;;2.27;;
17173;SDS011;8702;48.130;-1.696;2022-10-26T00:41:50;7.40;;;2.40;;
17173;SDS011;8702;48.130;-1.696;2022-10-26T00:47:27;8.67;;;2.40;;
17173;SDS011;8702;48.130;-1.696;2022-10-26T00:50:00;7.63;;;2.47;;
17173;SDS011;8702;48.130;-1.696;2022-10-26T00:52:31;11.93;;;2.60;;
17173;SDS011;8702;48.130;-1.696;2022-10-26T00:55:01;9.80;;;2.77;;
17173;SDS011;8702;48.130;-1.696;2022-10-26T00:57:28;9.20;;;2.53;;
17173;SDS011;8702;48.130;-1.696;2022-10-26T00:59:54;8.50;;;2.33;;
17173;SDS011;8702;48.130;-1.696;2022-10-26T01:02:23;8.47;;;2.53;;
17173;SDS011;8702;48.130;-1.696;2022-10-26T01:04:50;12.70;;;3.17;;
17173;SDS011;8702;48.130;-1.696;2022-10-26T01:07:18;5.23;;;2.23;;
17173;SDS011;8702;48.130;-1.696;2022-10-26T01:09:46;8.40;;;2.53;;
17173;SDS011;8702;48.130;-1.696;2022-10-26T01:12:15;6.93;;;2.27;;
17173;SDS011;8702;48.130;-1.696;2022-10-26T01:14:42;7.47;;;2.20;;
17173;SDS011;8702;48.130;-1.696;2022-10-26T01:17:13;8.23;;;2.63;;
17173;SDS011;8702;48.130;-1.696;2022-10-26T01:23:00;9.73;;;2.37;;
17173;SDS011;8702;48.130;-1.696;2022-10-26T01:25:40;10.57;;;2.63;;
17173;SDS011;8702;48.130;-1.696;2022-10-26T01:28:23;7.30;;;2.17;;
17173;SDS011;8702;48.130;-1.696;2022-10-26T01:31:06;10.33;;;2.40;;
17173;SDS011;8702;48.130;-1.696;2022-10-26T01:33:37;7.03;;;2.40;;
17173;SDS011;8702;48.130;-1.696;2022-10-26T01:36:09;5.30;;;1.97;;
17173;SDS011;8702;48.130;-1.696;2022-10-26T01:38:41;8.77;;;2.03;;
17173;SDS011;8702;48.130;-1.696;2022-10-26T01:41:14;11.03;;;2.17;;
17173;SDS011;8702;48.130;-1.696;2022-10-26T01:43:51;9.07;;;2.10;;
17173;SDS011;8702;48.130;-1.696;2022-10-26T01:46:22;9.83;;;2.50;;
17173;SDS011;8702;48.130;-1.696;2022-10-26T01:48:52;6.93;;;2.07;;
17173;SDS011;8702;48.130;-1.696;2022-10-26T01:51:22;9.20;;;2.20;;
17173;SDS011;8702;48.130;-1.696;2022-10-26T01:53:52;4.97;;;1.70;;
17173;SDS011;8702;48.130;-1.696;2022-10-26T01:56:20;9.03;;;2.40;;
17173;SDS011;8702;48.130;-1.696;2022-10-26T02:05:02;8.53;;;2.30;;
17173;SDS011;8702;48.130;-1.696;2022-10-26T02:07:42;8.40;;;2.20;;
17173;SDS011;8702;48.130;-1.696;2022-10-26T02:10:22;11.37;;;2.87;;
17173;SDS011;8702;48.130;-1.696;2022-10-26T02:12:57;9.43;;;2.10;;
17173;SDS011;8702;48.130;-1.696;2022-10-26T02:15:32;6.73;;;2.43;;
17173;SDS011;8702;48.130;-1.696;2022-10-26T02:18:05;11.77;;;2.40;;
17173;SDS011;8702;48.130;-1.696;2022-10-26T02:20:43;8.87;;;2.17;;
17173;SDS011;8702;48.130;-1.696;2022-10-26T02:23:14;10.10;;;2.60;;
17173;SDS011;8702;48.130;-1.696;2022-10-26T02:25:44;8.23;;;2.43;;
17173;SDS011;8702;48.130;-1.696;2022-10-26T02:28:15;9.93;;;2.60;;
17173;SDS011;8702;48.130;-1.696;2022-10-26T02:30:45;10.83;;;2.70;;
17173;SDS011;8702;48.130;-1.696;2022-10-26T02:33:14;11.67;;;2.53;;
17173;SDS011;8702;48.130;-1.696;2022-10-26T02:35:45;7.10;;;2.50;;
17173;SDS011;8702;48.130;-1.696;2022-10-26T02:38:15;12.67;;;2.57;;
17173;SDS011;8702;48.130;-1.696;2022-10-26T02:40:45;10.00;;;2.43;;
17173;SDS011;8702;48.130;-1.696;2022-10-26T02:43:13;8.50;;;2.27;;
17173;SDS011;8702;48.130;-1.696;2022-10-26T02:45:47;11.37;;;2.60;;
17173;SDS011;8702;48.130;-1.696;2022-10-26T02:48:18;14.90;;;2.80;;
17173;SDS011;8702;48.130;-1.696;2022-10-26T02:50:49;8.30;;;2.27;;
17173;SDS011;8702;48.130;-1.696;2022-10-26T02:53:24;11.77;;;2.73;;
17173;SDS011;8702;48.130;-1.696;2022-10-26T02:55:55;12.03;;;2.87;;
17173;SDS011;8702;48.130;-1.696;2022-10-26T02:58:26;11.30;;;3.03;;
17173;SDS011;8702;48.130;-1.696;2022-10-26T03:00:56;11.10;;;2.17;;
17173;SDS011;8702;48.130;-1.696;2022-10-26T03:03:23;9.47;;;3.00;;
17173;SDS011;8702;48.130;-1.696;2022-10-26T03:05:52;10.77;;;2.47;;
17173;SDS011;8702;48.130;-1.696;2022-10-26T03:08:19;10.40;;;2.30;;
17173;SDS011;8702;48.130;-1.696;2022-10-26T03:10:46;10.90;;;2.80;;
17173;SDS011;8702;48.130;-1.696;2022-10-26T03:13:13;9.37;;;2.83;;
17173;SDS011;8702;48.130;-1.696;2022-10-26T03:15:40;15.20;;;3.30;;
17173;SDS011;8702;48.130;-1.696;2022-10-26T03:18:07;10.27;;;2.87;;
17173;SDS011;8702;48.130;-1.696;2022-10-26T03:20:34;11.17;;;2.80;;
17173;SDS011;8702;48.130;-1.696;2022-10-26T03:23:02;13.40;;;2.90;;
17173;SDS011;8702;48.130;-1.696;2022-10-26T03:25:29;10.20;;;3.07;;
17173;SDS011;8702;48.130;-1.696;2022-10-26T03:27:56;14.30;;;3.50;;
17173;SDS011;8702;48.130;-1.696;2022-10-26T03:30:24;13.00;;;3.67;;
17173;SDS011;8702;48.130;-1.696;2022-10-26T03:32:51;12.70;;;3.60;;
17173;SDS011;8702;48.130;-1.696;2022-10-26T03:35:18;15.00;;;3.90;;
17173;SDS011;8702;48.130;-1.696;2022-10-26T03:37:45;10.63;;;2.80;;
17173;SDS011;8702;48.130;-1.696;2022-10-26T03:40:14;13.43;;;3.50;;
17173;SDS011;8702;48.130;-1.696;2022-10-26T03:42:41;11.87;;;3.50;;
17173;SDS011;8702;48.130;-1.696;2022-10-26T03:45:08;18.23;;;3.50;;
17173;SDS011;8702;48.130;-1.696;2022-10-26T03:47:41;13.50;;;3.70;;
17173;SDS011;8702;48.130;-1.696;2022-10-26T03:50:09;20.43;;;4.33;;
17173;SDS011;8702;48.130;-1.696;2022-10-26T03:52:37;19.70;;;4.17;;
17173;SDS011;8702;48.130;-1.696;2022-10-26T03:55:04;11.23;;;3.57;;
17173;SDS011;8702;48.130;-1.696;2022-10-26T03:57:33;18.37;;;4.40;;
17173;SDS011;8702;48.130;-1.696;2022-10-26T04:00:06;16.97;;;4.10;;
17173;SDS011;8702;48.130;-1.696;2022-10-26T04:02:34;18.97;;;4.10;;
17173;SDS011;8702;48.130;-1.696;2022-10-26T04:05:00;16.70;;;4.13;;
17173;SDS011;8702;48.130;-1.696;2022-10-26T04:07:27;16.40;;;4.00;;
17173;SDS011;8702;48.130;-1.696;2022-10-26T04:09:54;11.83;;;3.23;;
17173;SDS011;8702;48.130;-1.696;2022-10-26T04:12:21;18.17;;;3.87;;
17173;SDS011;8702;48.130;-1.696;2022-10-26T04:14:50;14.50;;;3.60;;
17173;SDS011;8702;48.130;-1.696;2022-10-26T04:17:16;15.80;;;4.13;;
17173;SDS011;8702;48.130;-1.696;2022-10-26T04:19:43;18.63;;;3.97;;
17173;SDS011;8702;48.130;-1.696;2022-10-26T04:22:10;16.73;;;4.00;;
17173;SDS011;8702;48.130;-1.696;2022-10-26T04:24:37;14.63;;;3.40;;
17173;SDS011;8702;48.130;-1.696;2022-10-26T04:27:04;15.30;;;4.20;;
17173;SDS011;8702;48.130;-1.696;2022-10-26T04:29:31;15.87;;;4.00;;
17173;SDS011;8702;48.130;-1.696;2022-10-26T04:31:59;15.87;;;3.33;;
17173;SDS011;8702;48.130;-1.696;2022-10-26T04:34:29;12.83;;;3.87;;
17173;SDS011;8702;48.130;-1.696;2022-10-26T04:36:56;13.73;;;3.50;;
17173;SDS011;8702;48.130;-1.696;2022-10-26T04:39:23;14.07;;;3.53;;
17173;SDS011;8702;48.130;-1.696;2022-10-26T04:41:50;16.00;;;3.93;;
17173;SDS011;8702;48.130;-1.696;2022-10-26T04:44:17;19.77;;;4.00;;
17173;SDS011;8702;48.130;-1.696;2022-10-26T04:46:44;16.13;;;3.70;;
17173;SDS011;8702;48.130;-1.696;2022-10-26T04:49:13;16.10;;;3.73;;
17173;SDS011;8702;48.130;-1.696;2022-10-26T04:51:40;13.30;;;3.93;;
17173;SDS011;8702;48.130;-1.696;2022-10-26T04:54:07;11.97;;;3.57;;
17173;SDS011;8702;48.130;-1.696;2022-10-26T04:56:34;11.17;;;2.90;;
17173;SDS011;8702;48.130;-1.696;2022-10-26T04:59:01;18.70;;;4.00;;
17173;SDS011;8702;48.130;-1.696;2022-10-26T05:01:29;14.37;;;3.50;;
17173;SDS011;8702;48.130;-1.696;2022-10-26T05:03:56;12.17;;;3.40;;
17173;SDS011;8702;48.130;-1.696;2022-10-26T05:06:25;11.90;;;3.80;;
17173;SDS011;8702;48.130;-1.696;2022-10-26T05:08:52;16.13;;;3.10;;
17173;SDS011;8702;48.130;-1.696;2022-10-26T05:11:19;9.87;;;3.37;;
17173;SDS011;8702;48.130;-1.696;2022-10-26T05:13:46;16.17;;;3.63;;
17173;SDS011;8702;48.130;-1.696;2022-10-26T05:16:13;13.50;;;3.77;;
17173;SDS011;8702;48.130;-1.696;2022-10-26T05:18:41;13.47;;;3.83;;
17173;SDS011;8702;48.130;-1.696;2022-10-26T05:21:08;11.80;;;3.20;;
17173;SDS011;8702;48.130;-1.696;2022-10-26T05:23:39;14.90;;;3.67;;
17173;SDS011;8702;48.130;-1.696;2022-10-26T05:26:06;11.87;;;3.73;;
17173;SDS011;8702;48.130;-1.696;2022-10-26T05:28:33;11.20;;;3.00;;
17173;SDS011;8702;48.130;-1.696;2022-10-26T05:31:00;16.37;;;3.90;;
17173;SDS011;8702;48.130;-1.696;2022-10-26T05:33:27;16.00;;;4.00;;
17173;SDS011;8702;48.130;-1.696;2022-10-26T05:35:53;10.93;;;2.80;;
17173;SDS011;8702;48.130;-1.696;2022-10-26T05:38:20;11.73;;;3.13;;
17173;SDS011;8702;48.130;-1.696;2022-10-26T05:40:49;11.90;;;3.57;;
17173;SDS011;8702;48.130;-1.696;2022-10-26T05:43:18;15.97;;;3.80;;
17173;SDS011;8702;48.130;-1.696;2022-10-26T05:45:46;11.47;;;3.13;;
17173;SDS011;8702;48.130;-1.696;2022-10-26T05:48:14;16.00;;;3.93;;
17173;SDS011;8702;48.130;-1.696;2022-10-26T05:50:41;13.97;;;2.80;;
17173;SDS011;8702;48.130;-1.696;2022-10-26T05:53:08;13.90;;;3.23;;
17173;SDS011;8702;48.130;-1.696;2022-10-26T05:55:35;11.13;;;2.90;;
17173;SDS011;8702;48.130;-1.696;2022-10-26T05:58:04;15.30;;;3.73;;
17173;SDS011;8702;48.130;-1.696;2022-10-26T06:00:35;12.63;;;3.33;;
17173;SDS011;8702;48.130;-1.696;2022-10-26T06:03:13;12.27;;;3.33;;
17173;SDS011;8702;48.130;-1.696;2022-10-26T06:05:51;10.90;;;3.10;;
17173;SDS011;8702;48.130;-1.696;2022-10-26T06:08:19;11.03;;;2.93;;
17173;SDS011;8702;48.130;-1.696;2022-10-26T06:10:48;13.53;;;3.70;;
17173;SDS011;8702;48.130;-1.696;2022-10-26T06:13:17;10.60;;;3.17;;
17173;SDS011;8702;48.130;-1.696;2022-10-26T06:15:47;13.80;;;3.27;;
17173;SDS011;8702;48.130;-1.696;2022-10-26T06:18:24;11.23;;;3.10;;
17173;SDS011;8702;48.130;-1.696;2022-10-26T06:21:03;8.77;;;2.70;;
17173;SDS011;8702;48.130;-1.696;2022-10-26T06:23:43;14.40;;;3.57;;
17173;SDS011;8702;48.130;-1.696;2022-10-26T06:26:18;12.37;;;2.83;;
17173;SDS011;8702;48.130;-1.696;2022-10-26T06:28:58;11.90;;;3.37;;
17173;SDS011;8702;48.130;-1.696;2022-10-26T06:31:35;19.33;;;3.47;;
17173;SDS011;8702;48.130;-1.696;2022-10-26T06:34:03;8.27;;;2.53;;
17173;SDS011;8702;48.130;-1.696;2022-10-26T06:36:30;11.23;;;3.17;;
17173;SDS011;8702;48.130;-1.696;2022-10-26T06:38:59;9.97;;;2.93;;
17173;SDS011;8702;48.130;-1.696;2022-10-26T06:41:29;12.80;;;3.37;;
17173;SDS011;8702;48.130;-1.696;2022-10-26T06:43:59;14.43;;;3.27;;
17173;SDS011;8702;48.130;-1.696;2022-10-26T06:46:31;11.47;;;2.87;;
17173;SDS011;8702;48.130;-1.696;2022-10-26T06:49:06;11.60;;;3.37;;
17173;SDS011;8702;48.130;-1.696;2022-10-26T06:51:40;9.97;;;3.23;;
17173;SDS011;8702;48.130;-1.696;2022-10-26T06:54:21;11.50;;;3.17;;
17173;SDS011;8702;48.130;-1.696;2022-10-26T06:56:52;13.67;;;3.40;;
17173;SDS011;8702;48.130;-1.696;2022-10-26T06:59:24;10.63;;;3.50;;
17173;SDS011;8702;48.130;-1.696;2022-10-26T07:01:57;16.57;;;3.63;;
17173;SDS011;8702;48.130;-1.696;2022-10-26T07:04:24;14.10;;;3.90;;
17173;SDS011;8702;48.130;-1.696;2022-10-26T07:06:51;11.30;;;3.17;;
17173;SDS011;8702;48.130;-1.696;2022-10-26T07:09:21;13.73;;;3.30;;
17173;SDS011;8702;48.130;-1.696;2022-10-26T07:11:48;13.43;;;3.57;;
17173;SDS011;8702;48.130;-1.696;2022-10-26T07:14:15;12.67;;;3.43;;
17173;SDS011;8702;48.130;-1.696;2022-10-26T07:16:43;10.53;;;3.23;;
17173;SDS011;8702;48.130;-1.696;2022-10-26T07:19:10;10.10;;;3.07;;
17173;SDS011;8702;48.130;-1.696;2022-10-26T07:21:37;14.13;;;3.80;;
17173;SDS011;8702;48.130;-1.696;2022-10-26T07:24:04;17.43;;;4.57;;
17173;SDS011;8702;48.130;-1.696;2022-10-26T07:26:31;12.37;;;3.57;;
17173;SDS011;8702;48.130;-1.696;2022-10-26T07:28:58;14.83;;;3.60;;
17173;SDS011;8702;48.130;-1.696;2022-10-26T07:31:25;11.30;;;3.23;;
17173;SDS011;8702;48.130;-1.696;2022-10-26T07:33:54;14.03;;;3.27;;
17173;SDS011;8702;48.130;-1.696;2022-10-26T07:36:21;12.63;;;3.60;;
17173;SDS011;8702;48.130;-1.696;2022-10-26T07:38:50;12.30;;;3.03;;
17173;SDS011;8702;48.130;-1.696;2022-10-26T07:41:18;13.30;;;3.13;;
17173;SDS011;8702;48.130;-1.696;2022-10-26T07:43:45;10.93;;;3.30;;
17173;SDS011;8702;48.130;-1.696;2022-10-26T07:46:14;13.60;;;3.30;;
17173;SDS011;8702;48.130;-1.696;2022-10-26T07:48:42;12.93;;;3.37;;
17173;SDS011;8702;48.130;-1.696;2022-10-26T07:51:10;9.27;;;3.20;;
17173;SDS011;8702;48.130;-1.696;2022-10-26T07:53:37;17.53;;;4.03;;
17173;SDS011;8702;48.130;-1.696;2022-10-26T07:56:04;12.47;;;3.43;;
17173;SDS011;8702;48.130;-1.696;2022-10-26T07:58:32;14.63;;;3.23;;
17173;SDS011;8702;48.130;-1.696;2022-10-26T08:01:03;11.30;;;3.37;;
17173;SDS011;8702;48.130;-1.696;2022-10-26T08:03:31;13.13;;;3.13;;
17173;SDS011;8702;48.130;-1.696;2022-10-26T08:05:58;13.77;;;3.23;;
17173;SDS011;8702;48.130;-1.696;2022-10-26T08:08:27;11.13;;;3.73;;
17173;SDS011;8702;48.130;-1.696;2022-10-26T08:10:53;11.13;;;3.63;;
17173;SDS011;8702;48.130;-1.696;2022-10-26T08:13:20;15.57;;;3.30;;
17173;SDS011;8702;48.130;-1.696;2022-10-26T08:15:47;14.87;;;3.50;;
17173;SDS011;8702;48.130;-1.696;2022-10-26T08:18:14;14.73;;;3.10;;
17173;SDS011;8702;48.130;-1.696;2022-10-26T08:20:41;11.90;;;3.33;;
17173;SDS011;8702;48.130;-1.696;2022-10-26T08:23:08;14.63;;;3.03;;
17173;SDS011;8702;48.130;-1.696;2022-10-26T08:25:37;12.97;;;3.37;;
17173;SDS011;8702;48.130;-1.696;2022-10-26T08:28:04;15.93;;;3.07;;
17173;SDS011;8702;48.130;-1.696;2022-10-26T08:30:31;10.63;;;3.03;;
17173;SDS011;8702;48.130;-1.696;2022-10-26T08:32:59;14.27;;;3.67;;
17173;SDS011;8702;48.130;-1.696;2022-10-26T08:35:27;15.77;;;3.70;;
17173;SDS011;8702;48.130;-1.696;2022-10-26T08:37:54;13.80;;;3.30;;
17173;SDS011;8702;48.130;-1.696;2022-10-26T08:40:23;8.47;;;3.10;;
17173;SDS011;8702;48.130;-1.696;2022-10-26T08:42:54;9.73;;;3.07;;
17173;SDS011;8702;48.130;-1.696;2022-10-26T08:45:27;12.20;;;3.43;;
17173;SDS011;8702;48.130;-1.696;2022-10-26T08:47:59;12.10;;;3.50;;
17173;SDS011;8702;48.130;-1.696;2022-10-26T08:50:30;9.97;;;3.07;;
17173;SDS011;8702;48.130;-1.696;2022-10-26T08:53:00;13.03;;;3.23;;
17173;SDS011;8702;48.130;-1.696;2022-10-26T08:55:36;12.20;;;3.27;;
17173;SDS011;8702;48.130;-1.696;2022-10-26T08:58:13;15.83;;;3.57;;
17173;SDS011;8702;48.130;-1.696;2022-10-26T09:00:43;13.37;;;2.90;;
17173;SDS011;8702;48.130;-1.696;2022-10-26T09:03:12;9.13;;;2.27;;
17173;SDS011;8702;48.130;-1.696;2022-10-26T09:05:46;11.77;;;3.23;;
17173;SDS011;8702;48.130;-1.696;2022-10-26T09:08:23;17.77;;;3.83;;
17173;SDS011;8702;48.130;-1.696;2022-10-26T09:11:03;12.13;;;3.47;;
17173;SDS011;8702;48.130;-1.696;2022-10-26T09:13:39;13.80;;;3.97;;
17173;SDS011;8702;48.130;-1.696;2022-10-26T09:16:15;11.80;;;3.10;;
17173;SDS011;8702;48.130;-1.696;2022-10-26T09:18:51;13.10;;;3.10;;
17173;SDS011;8702;48.130;-1.696;2022-10-26T09:21:31;11.13;;;3.47;;
17173;SDS011;8702;48.130;-1.696;2022-10-26T09:24:06;11.50;;;3.63;;
17173;SDS011;8702;48.130;-1.696;2022-10-26T09:26:41;17.63;;;4.07;;
17173;SDS011;8702;48.130;-1.696;2022-10-26T09:29:19;10.67;;;3.10;;
17173;SDS011;8702;48.130;-1.696;2022-10-26T09:31:51;11.03;;;2.93;;
17173;SDS011;8702;48.130;-1.696;2022-10-26T09:34:23;11.23;;;3.17;;
17173;SDS011;8702;48.130;-1.696;2022-10-26T09:36:54;6.90;;;2.40;;
17173;SDS011;8702;48.130;-1.696;2022-10-26T09:39:23;10.73;;;3.00;;
17173;SDS011;8702;48.130;-1.696;2022-10-26T09:41:56;12.27;;;3.40;;
17173;SDS011;8702;48.130;-1.696;2022-10-26T09:44:29;8.87;;;2.67;;
17173;SDS011;8702;48.130;-1.696;2022-10-26T09:47:02;10.10;;;3.00;;
17173;SDS011;8702;48.130;-1.696;2022-10-26T09:49:34;8.67;;;2.57;;
17173;SDS011;8702;48.130;-1.696;2022-10-26T09:52:06;8.30;;;2.30;;
17173;SDS011;8702;48.130;-1.696;2022-10-26T09:54:33;7.87;;;2.33;;
17173;SDS011;8702;48.130;-1.696;2022-10-26T09:57:00;5.30;;;1.83;;
17173;SDS011;8702;48.130;-1.696;2022-10-26T09:59:32;5.20;;;1.77;;
17173;SDS011;8702;48.130;-1.696;2022-10-26T10:02:11;5.30;;;1.87;;
17173;SDS011;8702;48.130;-1.696;2022-10-26T10:04:58;3.77;;;1.77;;
17173;SDS011;8702;48.130;-1.696;2022-10-26T10:07:25;5.33;;;1.93;;
17173;SDS011;8702;48.130;-1.696;2022-10-26T10:10:08;4.47;;;1.90;;
17173;SDS011;8702;48.130;-1.696;2022-10-26T10:12:42;5.70;;;2.00;;
17173;SDS011;8702;48.130;-1.696;2022-10-26T10:15:16;4.43;;;1.97;;
17173;SDS011;8702;48.130;-1.696;2022-10-26T10:17:50;7.07;;;1.90;;
17173;SDS011;8702;48.130;-1.696;2022-10-26T10:20:20;5.53;;;1.90;;
17173;SDS011;8702;48.130;-1.696;2022-10-26T10:22:59;5.33;;;2.07;;
17173;SDS011;8702;48.130;-1.696;2022-10-26T10:25:33;5.30;;;1.93;;
17173;SDS011;8702;48.130;-1.696;2022-10-26T10:28:02;4.20;;;1.70;;
17173;SDS011;8702;48.130;-1.696;2022-10-26T10:30:52;4.37;;;1.70;;
17173;SDS011;8702;48.130;-1.696;2022-10-26T10:33:21;5.20;;;1.70;;
17173;SDS011;8702;48.130;-1.696;2022-10-26T10:35:56;4.73;;;1.90;;
17173;SDS011;8702;48.130;-1.696;2022-10-26T10:38:23;3.07;;;1.17;;
17173;SDS011;8702;48.130;-1.696;2022-10-26T10:40:52;5.40;;;1.33;;
17173;SDS011;8702;48.130;-1.696;2022-10-26T10:43:21;4.93;;;1.67;;
17173;SDS011;8702;48.130;-1.696;2022-10-26T10:45:49;4.17;;;1.50;;
17173;SDS011;8702;48.130;-1.696;2022-10-26T10:48:19;4.37;;;1.63;;
17173;SDS011;8702;48.130;-1.696;2022-10-26T10:50:51;3.47;;;1.13;;
17173;SDS011;8702;48.130;-1.696;2022-10-26T10:53:21;3.80;;;1.40;;
17173;SDS011;8702;48.130;-1.696;2022-10-26T10:55:56;4.80;;;1.43;;
17173;SDS011;8702;48.130;-1.696;2022-10-26T10:58:41;6.93;;;1.83;;
17173;SDS011;8702;48.130;-1.696;2022-10-26T11:01:15;3.97;;;1.50;;
17173;SDS011;8702;48.130;-1.696;2022-10-26T11:03:51;7.47;;;2.10;;
17173;SDS011;8702;48.130;-1.696;2022-10-26T11:06:37;6.43;;;1.60;;
17173;SDS011;8702;48.130;-1.696;2022-10-26T11:09:07;5.77;;;1.40;;
17173;SDS011;8702;48.130;-1.696;2022-10-26T11:11:37;3.97;;;1.70;;
17173;SDS011;8702;48.130;-1.696;2022-10-26T11:14:09;5.07;;;1.70;;
17173;SDS011;8702;48.130;-1.696;2022-10-26T11:16:42;8.30;;;2.10;;
17173;SDS011;8702;48.130;-1.696;2022-10-26T11:19:15;6.20;;;2.13;;
17173;SDS011;8702;48.130;-1.696;2022-10-26T11:21:48;3.70;;;1.67;;
17173;SDS011;8702;48.130;-1.696;2022-10-26T11:24:19;4.23;;;1.67;;
17173;SDS011;8702;48.130;-1.696;2022-10-26T11:26:51;4.47;;;1.73;;
17173;SDS011;8702;48.130;-1.696;2022-10-26T11:29:26;4.17;;;1.50;;
17173;SDS011;8702;48.130;-1.696;2022-10-26T11:31:57;5.77;;;1.93;;
17173;SDS011;8702;48.130;-1.696;2022-10-26T11:34:33;4.57;;;1.40;;
17173;SDS011;8702;48.130;-1.696;2022-10-26T11:37:07;3.07;;;1.40;;
17173;SDS011;8702;48.130;-1.696;2022-10-26T11:39:41;3.97;;;1.60;;
17173;SDS011;8702;48.130;-1.696;2022-10-26T11:42:14;5.10;;;1.80;;
17173;SDS011;8702;48.130;-1.696;2022-10-26T11:44:48;4.80;;;1.70;;
17173;SDS011;8702;48.130;-1.696;2022-10-26T11:47:21;9.40;;;1.93;;
17173;SDS011;8702;48.130;-1.696;2022-10-26T11:49:52;4.37;;;1.63;;
17173;SDS011;8702;48.130;-1.696;2022-10-26T11:52:27;5.27;;;1.93;;
17173;SDS011;8702;48.130;-1.696;2022-10-26T11:54:58;5.43;;;1.80;;
17173;SDS011;8702;48.130;-1.696;2022-10-26T11:57:26;5.63;;;1.70;;
17173;SDS011;8702;48.130;-1.696;2022-10-26T11:59:57;7.27;;;1.80;;
17173;SDS011;8702;48.130;-1.696;2022-10-26T12:02:28;5.83;;;2.10;;
17173;SDS011;8702;48.130;-1.696;2022-10-26T12:04:58;4.83;;;1.63;;
17173;SDS011;8702;48.130;-1.696;2022-10-26T12:07:29;6.63;;;2.20;;
17173;SDS011;8702;48.130;-1.696;2022-10-26T12:09:58;7.43;;;2.00;;
17173;SDS011;8702;48.130;-1.696;2022-10-26T12:12:30;5.63;;;1.80;;
17173;SDS011;8702;48.130;-1.696;2022-10-26T12:15:08;3.53;;;1.50;;
17173;SDS011;8702;48.130;-1.696;2022-10-26T12:17:45;4.73;;;1.80;;
17173;SDS011;8702;48.130;-1.696;2022-10-26T12:20:37;4.07;;;1.80;;
17173;SDS011;8702;48.130;-1.696;2022-10-26T12:23:18;6.83;;;2.17;;
17173;SDS011;8702;48.130;-1.696;2022-10-26T12:25:47;8.30;;;2.10;;
17173;SDS011;8702;48.130;-1.696;2022-10-26T12:34:09;7.13;;;2.13;;
17173;SDS011;8702;48.130;-1.696;2022-10-26T12:36:46;7.97;;;2.23;;
17173;SDS011;8702;48.130;-1.696;2022-10-26T12:39:25;4.50;;;2.00;;
17173;SDS011;8702;48.130;-1.696;2022-10-26T12:41:56;8.40;;;2.10;;
17173;SDS011;8702;48.130;-1.696;2022-10-26T12:44:37;5.50;;;1.67;;
17173;SDS011;8702;48.130;-1.696;2022-10-26T12:47:06;3.73;;;1.60;;
17173;SDS011;8702;48.130;-1.696;2022-10-26T12:55:24;6.90;;;1.73;;
17173;SDS011;8702;48.130;-1.696;2022-10-26T12:58:21;6.17;;;2.23;;
17173;SDS011;8702;48.130;-1.696;2022-10-26T13:01:31;6.23;;;2.30;;
17173;SDS011;8702;48.130;-1.696;2022-10-26T13:04:42;7.73;;;2.10;;
17173;SDS011;8702;48.130;-1.696;2022-10-26T13:07:34;6.43;;;1.97;;
17173;SDS011;8702;48.130;-1.696;2022-10-26T13:10:03;7.50;;;2.47;;
17173;SDS011;8702;48.130;-1.696;2022-10-26T13:12:45;10.17;;;2.60;;
17173;SDS011;8702;48.130;-1.696;2022-10-26T13:15:19;6.10;;;1.90;;
17173;SDS011;8702;48.130;-1.696;2022-10-26T13:18:01;6.10;;;2.17;;
17173;SDS011;8702;48.130;-1.696;2022-10-26T13:20:35;10.17;;;2.20;;
17173;SDS011;8702;48.130;-1.696;2022-10-26T13:23:04;7.50;;;2.53;;
17173;SDS011;8702;48.130;-1.696;2022-10-26T13:25:42;8.13;;;2.27;;
17173;SDS011;8702;48.130;-1.696;2022-10-26T13:28:31;8.50;;;2.87;;
17173;SDS011;8702;48.130;-1.696;2022-10-26T13:31:09;5.87;;;2.17;;
17173;SDS011;8702;48.130;-1.696;2022-10-26T13:33:39;10.97;;;3.03;;
17173;SDS011;8702;48.130;-1.696;2022-10-26T13:36:12;6.03;;;2.10;;
17173;SDS011;8702;48.130;-1.696;2022-10-26T13:38:45;9.23;;;2.20;;
17173;SDS011;8702;48.130;-1.696;2022-10-26T13:41:16;6.00;;;2.00;;
17173;SDS011;8702;48.130;-1.696;2022-10-26T13:43:49;7.23;;;2.10;;
17173;SDS011;8702;48.130;-1.696;2022-10-26T13:46:20;7.10;;;2.07;;
17173;SDS011;8702;48.130;-1.696;2022-10-26T13:48:52;8.03;;;2.40;;
17173;SDS011;8702;48.130;-1.696;2022-10-26T13:51:24;9.70;;;2.30;;
17173;SDS011;8702;48.130;-1.696;2022-10-26T13:54:02;5.63;;;2.17;;
17173;SDS011;8702;48.130;-1.696;2022-10-26T13:56:38;10.50;;;2.80;;
17173;SDS011;8702;48.130;-1.696;2022-10-26T13:59:09;8.57;;;2.50;;
17173;SDS011;8702;48.130;-1.696;2022-10-26T14:01:38;11.43;;;2.47;;
17173;SDS011;8702;48.130;-1.696;2022-10-26T14:04:14;7.10;;;2.40;;
17173;SDS011;8702;48.130;-1.696;2022-10-26T14:06:43;11.10;;;2.67;;
17173;SDS011;8702;48.130;-1.696;2022-10-26T14:09:15;7.37;;;2.40;;
17173;SDS011;8702;48.130;-1.696;2022-10-26T14:11:45;8.17;;;2.17;;
17173;SDS011;8702;48.130;-1.696;2022-10-26T14:14:15;8.40;;;2.50;;
17173;SDS011;8702;48.130;-1.696;2022-10-26T14:16:46;10.20;;;2.60;;
17173;SDS011;8702;48.130;-1.696;2022-10-26T14:19:17;8.53;;;2.27;;
17173;SDS011;8702;48.130;-1.696;2022-10-26T14:21:49;6.80;;;2.17;;
17173;SDS011;8702;48.130;-1.696;2022-10-26T14:24:21;7.00;;;2.13;;
17173;SDS011;8702;48.130;-1.696;2022-10-26T14:26:49;13.50;;;2.50;;
17173;SDS011;8702;48.130;-1.696;2022-10-26T14:29:17;11.67;;;2.47;;
17173;SDS011;8702;48.130;-1.696;2022-10-26T14:31:46;7.23;;;2.00;;
17173;SDS011;8702;48.130;-1.696;2022-10-26T14:34:14;7.53;;;2.10;;
17173;SDS011;8702;48.130;-1.696;2022-10-26T14:36:43;10.00;;;2.63;;
17173;SDS011;8702;48.130;-1.696;2022-10-26T14:39:17;5.77;;;2.30;;
17173;SDS011;8702;48.130;-1.696;2022-10-26T14:41:54;6.20;;;1.90;;
17173;SDS011;8702;48.130;-1.696;2022-10-26T14:44:23;5.80;;;1.97;;
17173;SDS011;8702;48.130;-1.696;2022-10-26T14:46:50;5.87;;;2.03;;
17173;SDS011;8702;48.130;-1.696;2022-10-26T14:49:19;7.97;;;2.40;;
17173;SDS011;8702;48.130;-1.696;2022-10-26T14:51:48;9.60;;;2.43;;
17173;SDS011;8702;48.130;-1.696;2022-10-26T14:54:18;10.40;;;2.50;;
17173;SDS011;8702;48.130;-1.696;2022-10-26T14:56:48;7.93;;;2.30;;
17173;SDS011;8702;48.130;-1.696;2022-10-26T14:59:19;11.53;;;2.50;;
17173;SDS011;8702;48.130;-1.696;2022-10-26T15:01:50;5.53;;;1.97;;
17173;SDS011;8702;48.130;-1.696;2022-10-26T15:04:27;8.30;;;2.60;;
17173;SDS011;8702;48.130;-1.696;2022-10-26T15:09:43;5.33;;;2.20;;
17173;SDS011;8702;48.130;-1.696;2022-10-26T15:12:22;9.87;;;2.70;;
17173;SDS011;8702;48.130;-1.696;2022-10-26T15:14:54;5.77;;;1.87;;
17173;SDS011;8702;48.130;-1.696;2022-10-26T15:17:29;6.87;;;2.10;;
17173;SDS011;8702;48.130;-1.696;2022-10-26T15:20:02;6.90;;;2.00;;
17173;SDS011;8702;48.130;-1.696;2022-10-26T15:22:30;10.77;;;2.20;;
17173;SDS011;8702;48.130;-1.696;2022-10-26T15:25:00;6.17;;;2.00;;
17173;SDS011;8702;48.130;-1.696;2022-10-26T15:27:29;5.90;;;2.10;;
17173;SDS011;8702;48.130;-1.696;2022-10-26T15:30:12;7.17;;;2.37;;